createdAt,value
2022-07-26T00:00:36.659Z,0.00
2022-07-26T00:01:36.921Z,0.00
2022-07-26T00:02:36.786Z,0.00
2022-07-26T00:03:36.635Z,0.00
2022-07-26T00:04:36.618Z,0.00
2022-07-26T00:05:36.593Z,0.00
2022-07-26T00:06:36.589Z,0.00
2022-07-26T00:07:36.891Z,0.00
2022-07-26T00:08:36.567Z,0.00
2022-07-26T00:09:36.567Z,0.00
2022-07-26T00:10:36.543Z,0.00
2022-07-26T00:11:36.542Z,0.00
2022-07-26T00:12:36.529Z,0.00
2022-07-26T00:13:36.522Z,0.00
2022-07-26T00:14:36.491Z,0.00
2022-07-26T00:15:36.488Z,0.00
2022-07-26T00:16:36.603Z,0.00
2022-07-26T00:17:36.478Z,0.00
2022-07-26T00:18:36.444Z,0.00
2022-07-26T00:19:36.460Z,0.00
2022-07-26T00:20:36.429Z,0.00
2022-07-26T00:21:36.421Z,0.00
2022-07-26T00:22:36.456Z,0.00
2022-07-26T00:23:36.407Z,0.00
2022-07-26T00:24:36.384Z,0.00
2022-07-26T00:25:36.374Z,0.00
2022-07-26T00:26:36.391Z,0.00
2022-07-26T00:27:36.345Z,0.00
2022-07-26T00:28:36.358Z,0.00
2022-07-26T00:29:36.338Z,0.00
2022-07-26T00:30:36.314Z,0.00
2022-07-26T00:31:36.336Z,0.00
2022-07-26T00:32:36.296Z,0.00
2022-07-26T00:33:36.287Z,0.00
2022-07-26T00:34:36.276Z,0.00
2022-07-26T00:35:36.290Z,0.00
2022-07-26T00:36:36.259Z,0.00
2022-07-26T00:37:37.238Z,0.00
2022-07-26T00:38:36.260Z,0.00
2022-07-26T00:39:36.219Z,0.00
2022-07-26T00:40:36.230Z,0.00
2022-07-26T00:41:36.202Z,0.00
2022-07-26T00:42:36.193Z,0.00
2022-07-26T00:43:36.176Z,0.00
2022-07-26T00:44:36.170Z,0.00
2022-07-26T00:45:36.161Z,0.00
2022-07-26T00:46:36.212Z,0.00
2022-07-26T00:47:36.134Z,0.00
2022-07-26T00:48:36.222Z,0.00
2022-07-26T00:49:36.137Z,0.00
2022-07-26T00:50:36.101Z,0.00
2022-07-26T00:51:36.104Z,0.00
2022-07-26T00:52:36.090Z,0.00
2022-07-26T00:53:36.071Z,0.00
2022-07-26T00:54:36.067Z,0.00
2022-07-26T00:55:36.045Z,0.00
2022-07-26T00:56:36.034Z,0.00
2022-07-26T00:57:36.035Z,0.00
2022-07-26T00:58:36.013Z,0.00
2022-07-26T00:59:35.999Z,0.00
2022-07-26T01:00:36.032Z,0.00
2022-07-26T01:01:36.068Z,0.00
2022-07-26T01:02:36.302Z,0.00
2022-07-26T01:03:36.540Z,0.00
2022-07-26T01:04:35.944Z,0.00
2022-07-26T01:05:35.945Z,0.00
2022-07-26T01:06:35.927Z,0.00
2022-07-26T01:07:35.964Z,0.00
2022-07-26T01:08:35.896Z,0.00
2022-07-26T01:09:35.908Z,0.00
2022-07-26T01:10:35.867Z,0.00
2022-07-26T01:11:35.879Z,0.00
2022-07-26T01:12:35.869Z,0.00
2022-07-26T01:13:35.886Z,0.00
2022-07-26T01:14:35.833Z,0.00
2022-07-26T01:15:35.833Z,0.00
2022-07-26T01:16:35.869Z,0.00
2022-07-26T01:17:36.343Z,0.00
2022-07-26T01:18:35.797Z,0.00
2022-07-26T01:19:35.789Z,0.00
2022-07-26T01:20:35.761Z,0.00
2022-07-26T01:21:35.767Z,0.00
2022-07-26T01:22:35.747Z,0.00
2022-07-26T01:23:35.757Z,0.00
2022-07-26T01:24:35.732Z,0.00
2022-07-26T01:25:43.388Z,0.00
2022-07-26T01:26:36.699Z,0.00
2022-07-26T01:27:35.690Z,0.00
2022-07-26T01:28:35.681Z,0.00
2022-07-26T01:29:36.112Z,0.00
2022-07-26T01:30:35.661Z,0.00
2022-07-26T01:31:35.672Z,0.00
2022-07-26T01:32:35.634Z,0.00
2022-07-26T01:33:35.625Z,0.00
2022-07-26T01:34:35.632Z,0.00
2022-07-26T01:35:35.610Z,0.00
2022-07-26T01:36:35.596Z,0.00
2022-07-26T01:37:35.587Z,0.00
2022-07-26T01:38:35.578Z,0.00
2022-07-26T01:39:35.583Z,0.00
2022-07-26T01:40:35.555Z,0.00
2022-07-26T01:41:38.296Z,0.00
2022-07-26T01:42:35.515Z,0.00
2022-07-26T01:43:35.515Z,0.00
2022-07-26T01:44:35.509Z,0.00
2022-07-26T01:45:35.524Z,0.00
2022-07-26T01:46:35.478Z,0.00
2022-07-26T01:47:35.478Z,0.00
2022-07-26T01:48:35.531Z,0.00
2022-07-26T01:49:35.444Z,0.00
2022-07-26T01:50:35.446Z,0.00
2022-07-26T01:51:35.433Z,0.00
2022-07-26T01:52:35.407Z,0.00
2022-07-26T01:53:35.528Z,0.00
2022-07-26T01:54:35.396Z,0.00
2022-07-26T01:55:35.414Z,0.00
2022-07-26T01:56:35.368Z,0.00
2022-07-26T01:57:35.385Z,0.00
2022-07-26T01:58:35.358Z,0.00
2022-07-26T01:59:35.338Z,0.00
2022-07-26T02:00:35.327Z,0.00
2022-07-26T02:01:38.461Z,0.00
2022-07-26T02:02:35.462Z,0.00
2022-07-26T02:03:35.297Z,0.00
2022-07-26T02:04:35.289Z,0.00
2022-07-26T02:05:35.268Z,0.00
2022-07-26T02:06:35.297Z,0.00
2022-07-26T02:07:35.240Z,0.00
2022-07-26T02:08:35.256Z,0.00
2022-07-26T02:09:39.558Z,0.00
2022-07-26T02:10:35.214Z,0.00
2022-07-26T02:11:35.210Z,0.00
2022-07-26T02:12:35.201Z,0.00
2022-07-26T02:13:35.193Z,0.00
2022-07-26T02:14:35.183Z,0.00
2022-07-26T02:15:35.230Z,0.00
2022-07-26T02:16:35.155Z,0.00
2022-07-26T02:17:35.135Z,0.00
2022-07-26T02:18:35.142Z,0.00
2022-07-26T02:19:35.102Z,0.00
2022-07-26T02:20:35.103Z,0.00
2022-07-26T02:21:35.092Z,0.00
2022-07-26T02:22:35.080Z,0.00
2022-07-26T02:23:35.078Z,0.00
2022-07-26T02:24:36.064Z,0.00
2022-07-26T02:25:35.044Z,0.00
2022-07-26T02:26:35.034Z,0.00
2022-07-26T02:27:35.044Z,0.00
2022-07-26T02:28:35.034Z,0.00
2022-07-26T02:29:34.996Z,0.00
2022-07-26T02:30:35.003Z,0.00
2022-07-26T02:31:35.069Z,0.00
2022-07-26T02:32:34.987Z,0.00
2022-07-26T02:33:34.983Z,0.00
2022-07-26T02:34:34.959Z,0.00
2022-07-26T02:35:34.930Z,0.00
2022-07-26T02:36:34.936Z,0.00
2022-07-26T02:37:40.812Z,0.00
2022-07-26T02:38:35.920Z,0.00
2022-07-26T02:39:34.913Z,0.00
2022-07-26T02:40:34.886Z,0.00
2022-07-26T02:41:34.867Z,0.00
2022-07-26T02:42:34.864Z,0.00
2022-07-26T02:43:34.869Z,0.00
2022-07-26T02:44:34.832Z,0.00
2022-07-26T02:45:34.834Z,0.00
2022-07-26T02:46:34.878Z,0.00
2022-07-26T02:47:34.812Z,0.00
2022-07-26T02:48:34.879Z,0.00
2022-07-26T02:49:34.789Z,0.00
2022-07-26T02:50:34.771Z,0.00
2022-07-26T02:51:34.752Z,0.00
2022-07-26T02:52:34.750Z,0.00
2022-07-26T02:53:34.751Z,0.00
2022-07-26T02:54:34.722Z,0.00
2022-07-26T02:55:34.721Z,0.00
2022-07-26T02:56:34.757Z,0.00
2022-07-26T02:57:35.105Z,0.00
2022-07-26T02:58:35.712Z,0.00
2022-07-26T02:59:34.672Z,0.00
2022-07-26T03:00:34.667Z,0.00
2022-07-26T03:01:34.721Z,0.00
2022-07-26T03:02:34.697Z,0.00
2022-07-26T03:03:36.657Z,0.00
2022-07-26T03:04:34.625Z,0.00
2022-07-26T03:05:34.614Z,0.00
2022-07-26T03:06:34.604Z,0.00
2022-07-26T03:07:34.584Z,0.00
2022-07-26T03:08:34.577Z,0.00
2022-07-26T03:09:34.556Z,0.00
2022-07-26T03:10:34.554Z,0.00
2022-07-26T03:11:34.564Z,0.00
2022-07-26T03:12:34.526Z,0.00
2022-07-26T03:13:34.516Z,0.00
2022-07-26T03:14:34.517Z,0.00
2022-07-26T03:15:34.592Z,4.00
2022-07-26T03:16:34.541Z,4.00
2022-07-26T03:17:34.475Z,4.00
2022-07-26T03:18:34.466Z,4.00
2022-07-26T03:19:34.451Z,0.00
2022-07-26T03:20:34.438Z,4.00
2022-07-26T03:21:34.418Z,4.00
2022-07-26T03:22:34.415Z,4.00
2022-07-26T03:23:34.429Z,4.00
2022-07-26T03:24:34.395Z,8.00
2022-07-26T03:25:36.914Z,4.00
2022-07-26T03:26:34.379Z,4.00
2022-07-26T03:27:34.368Z,8.00
2022-07-26T03:28:34.361Z,8.00
2022-07-26T03:29:34.342Z,8.00
2022-07-26T03:30:34.334Z,12.00
2022-07-26T03:31:34.421Z,12.00
2022-07-26T03:32:34.313Z,8.00
2022-07-26T03:33:34.323Z,12.00
2022-07-26T03:34:34.278Z,16.00
2022-07-26T03:35:36.497Z,16.00
2022-07-26T03:36:34.272Z,16.00
2022-07-26T03:37:44.721Z,20.00
2022-07-26T03:38:35.244Z,28.00
2022-07-26T03:39:34.228Z,24.00
2022-07-26T03:40:34.211Z,28.00
2022-07-26T03:41:34.211Z,28.00
2022-07-26T03:42:34.192Z,32.00
2022-07-26T03:43:36.405Z,32.00
2022-07-26T03:44:34.163Z,32.00
2022-07-26T03:45:34.169Z,36.00
2022-07-26T03:46:34.232Z,40.00
2022-07-26T03:47:34.135Z,44.00
2022-07-26T03:48:34.158Z,52.00
2022-07-26T03:49:34.125Z,60.00
2022-07-26T03:50:34.094Z,64.00
2022-07-26T03:51:34.100Z,72.00
2022-07-26T03:52:34.083Z,76.00
2022-07-26T03:53:34.083Z,92.00
2022-07-26T03:54:34.051Z,100.00
2022-07-26T03:55:34.053Z,108.00
2022-07-26T03:56:34.054Z,120.00
2022-07-26T03:57:34.024Z,124.00
2022-07-26T03:58:34.016Z,132.00
2022-07-26T03:59:34.006Z,140.00
2022-07-26T04:00:33.986Z,156.00
2022-07-26T04:01:34.037Z,180.00
2022-07-26T04:02:34.033Z,204.00
2022-07-26T04:03:33.949Z,228.00
2022-07-26T04:04:33.959Z,244.00
2022-07-26T04:05:33.948Z,260.00
2022-07-26T04:06:33.935Z,272.00
2022-07-26T04:07:33.922Z,292.00
2022-07-26T04:08:33.907Z,296.00
2022-07-26T04:09:33.899Z,304.00
2022-07-26T04:10:33.878Z,304.00
2022-07-26T04:11:33.868Z,304.00
2022-07-26T04:12:33.871Z,296.00
2022-07-26T04:13:33.839Z,292.00
2022-07-26T04:14:33.841Z,304.00
2022-07-26T04:15:33.830Z,332.00
2022-07-26T04:16:33.858Z,356.00
2022-07-26T04:17:33.814Z,376.00
2022-07-26T04:18:33.802Z,388.00
2022-07-26T04:19:33.771Z,384.00
2022-07-26T04:20:34.761Z,380.00
2022-07-26T04:21:33.766Z,376.00
2022-07-26T04:22:33.761Z,368.00
2022-07-26T04:23:33.722Z,356.00
2022-07-26T04:24:33.736Z,356.00
2022-07-26T04:25:40.988Z,360.00
2022-07-26T04:26:34.701Z,372.00
2022-07-26T04:27:33.700Z,400.00
2022-07-26T04:28:33.695Z,464.00
2022-07-26T04:29:33.663Z,568.00
2022-07-26T04:30:33.756Z,692.00
2022-07-26T04:31:36.138Z,796.00
2022-07-26T04:32:33.655Z,864.00
2022-07-26T04:33:33.624Z,948.00
2022-07-26T04:34:33.625Z,1040.00
2022-07-26T04:35:33.599Z,1064.00
2022-07-26T04:36:33.586Z,1028.00
2022-07-26T04:37:33.588Z,996.00
2022-07-26T04:38:33.577Z,980.00
2022-07-26T04:39:33.555Z,944.00
2022-07-26T04:40:33.593Z,884.00
2022-07-26T04:41:33.545Z,828.00
2022-07-26T04:42:33.516Z,900.00
2022-07-26T04:43:33.528Z,1076.00
2022-07-26T04:44:33.516Z,1196.00
2022-07-26T04:45:33.491Z,1276.00
2022-07-26T04:46:33.520Z,1344.00
2022-07-26T04:47:33.476Z,1392.00
2022-07-26T04:48:33.495Z,1464.00
2022-07-26T04:49:33.453Z,1504.00
2022-07-26T04:50:33.440Z,1576.00
2022-07-26T04:51:33.417Z,1604.00
2022-07-26T04:52:33.913Z,1648.00
2022-07-26T04:53:33.417Z,1720.00
2022-07-26T04:54:33.400Z,1728.00
2022-07-26T04:55:33.379Z,1664.00
2022-07-26T04:56:33.369Z,1544.00
2022-07-26T04:57:33.351Z,1468.00
2022-07-26T04:58:33.340Z,1388.00
2022-07-26T04:59:33.350Z,1304.00
2022-07-26T05:00:35.069Z,1268.00
2022-07-26T05:01:34.333Z,1208.00
2022-07-26T05:02:33.453Z,1176.00
2022-07-26T05:03:33.292Z,1164.00
2022-07-26T05:04:33.291Z,1164.00
2022-07-26T05:05:33.270Z,1228.00
2022-07-26T05:06:33.260Z,1352.00
2022-07-26T05:07:33.242Z,1428.00
2022-07-26T05:08:33.253Z,1500.00
2022-07-26T05:09:33.248Z,1612.00
2022-07-26T05:10:33.211Z,1760.00
2022-07-26T05:11:33.191Z,1932.00
2022-07-26T05:12:33.191Z,2020.00
2022-07-26T05:13:33.172Z,2036.00
2022-07-26T05:14:33.186Z,1964.00
2022-07-26T05:15:35.066Z,1900.00
2022-07-26T05:16:33.172Z,1772.00
2022-07-26T05:17:35.484Z,1668.00
2022-07-26T05:18:43.850Z,1700.00
2022-07-26T05:19:34.134Z,1792.00
2022-07-26T05:20:33.099Z,2040.00
2022-07-26T05:21:33.095Z,2276.00
2022-07-26T05:22:33.080Z,2408.00
2022-07-26T05:23:33.064Z,2584.00
2022-07-26T05:24:33.066Z,2712.00
2022-07-26T05:25:33.054Z,2552.00
2022-07-26T05:26:33.036Z,2392.00
2022-07-26T05:27:33.018Z,2296.00
2022-07-26T05:28:33.016Z,2236.00
2022-07-26T05:29:33.011Z,2264.00
2022-07-26T05:30:33.015Z,2348.00
2022-07-26T05:31:32.977Z,2444.00
2022-07-26T05:32:32.970Z,2588.00
2022-07-26T05:33:32.954Z,2872.00
2022-07-26T05:34:32.958Z,3148.00
2022-07-26T05:35:32.965Z,3300.00
2022-07-26T05:36:32.921Z,3392.00
2022-07-26T05:37:32.929Z,3412.00
2022-07-26T05:38:32.912Z,3452.00
2022-07-26T05:39:32.908Z,3396.00
2022-07-26T05:40:32.886Z,3108.00
2022-07-26T05:41:32.897Z,2864.00
2022-07-26T05:42:32.858Z,2696.00
2022-07-26T05:43:40.790Z,2728.00
2022-07-26T05:44:33.841Z,2860.00
2022-07-26T05:45:32.853Z,3116.00
2022-07-26T05:46:32.861Z,3184.00
2022-07-26T05:47:32.802Z,3072.00
2022-07-26T05:48:32.837Z,2936.00
2022-07-26T05:49:39.903Z,2880.00
2022-07-26T05:50:33.783Z,2900.00
2022-07-26T05:51:32.769Z,2928.00
2022-07-26T05:52:32.746Z,2956.00
2022-07-26T05:53:32.752Z,2960.00
2022-07-26T05:54:32.731Z,3116.00
2022-07-26T05:55:32.714Z,3268.00
2022-07-26T05:56:32.714Z,3320.00
2022-07-26T05:57:32.704Z,3372.00
2022-07-26T05:58:32.696Z,3492.00
2022-07-26T05:59:32.672Z,3664.00
2022-07-26T06:00:32.673Z,3740.00
2022-07-26T06:01:32.641Z,3672.00
2022-07-26T06:02:32.703Z,3876.00
2022-07-26T06:03:32.650Z,4096.00
2022-07-26T06:04:32.772Z,4172.00
2022-07-26T06:05:32.613Z,4292.00
2022-07-26T06:06:32.598Z,4508.00
2022-07-26T06:07:32.594Z,4764.00
2022-07-26T06:08:32.586Z,4988.00
2022-07-26T06:09:32.567Z,5172.00
2022-07-26T06:10:32.558Z,5512.00
2022-07-26T06:11:32.549Z,5856.00
2022-07-26T06:12:32.528Z,6220.00
2022-07-26T06:13:32.548Z,6484.00
2022-07-26T06:14:32.506Z,6608.00
2022-07-26T06:15:32.496Z,6064.00
2022-07-26T06:16:32.490Z,5868.00
2022-07-26T06:17:32.580Z,6220.00
2022-07-26T06:18:32.468Z,6016.00
2022-07-26T06:19:32.464Z,5296.00
2022-07-26T06:20:32.449Z,5400.00
2022-07-26T06:21:32.429Z,5644.00
2022-07-26T06:22:32.422Z,6144.00
2022-07-26T06:23:34.628Z,6328.00
2022-07-26T06:24:32.399Z,5684.00
2022-07-26T06:25:32.409Z,4620.00
2022-07-26T06:26:32.386Z,3908.00
2022-07-26T06:27:32.368Z,3388.00
2022-07-26T06:28:32.358Z,3100.00
2022-07-26T06:29:32.763Z,2848.00
2022-07-26T06:30:32.342Z,2968.00
2022-07-26T06:31:32.427Z,3388.00
2022-07-26T06:32:32.312Z,3444.00
2022-07-26T06:33:32.298Z,3060.00
2022-07-26T06:34:32.294Z,3156.00
2022-07-26T06:35:32.283Z,3672.00
2022-07-26T06:36:32.269Z,3724.00
2022-07-26T06:37:32.253Z,3232.00
2022-07-26T06:38:32.253Z,2988.00
2022-07-26T06:39:32.226Z,3336.00
2022-07-26T06:40:32.222Z,3932.00
2022-07-26T06:41:32.221Z,4180.00
2022-07-26T06:42:32.208Z,4044.00
2022-07-26T06:43:32.194Z,3940.00
2022-07-26T06:44:32.186Z,3924.00
2022-07-26T06:45:32.208Z,3792.00
2022-07-26T06:46:32.156Z,3688.00
2022-07-26T06:47:32.157Z,3636.00
2022-07-26T06:48:32.188Z,3524.00
2022-07-26T06:49:32.205Z,3400.00
2022-07-26T06:50:32.118Z,3400.00
2022-07-26T06:51:32.097Z,3564.00
2022-07-26T06:52:32.105Z,3716.00
2022-07-26T06:53:32.067Z,3808.00
2022-07-26T06:54:32.072Z,3896.00
2022-07-26T06:55:32.057Z,3976.00
2022-07-26T06:56:32.038Z,3992.00
2022-07-26T06:57:32.027Z,3980.00
2022-07-26T06:58:32.021Z,3952.00
2022-07-26T06:59:31.999Z,3936.00
2022-07-26T07:00:32.011Z,3956.00
2022-07-26T07:01:51.579Z,4060.00
2022-07-26T07:02:32.969Z,4184.00
2022-07-26T07:03:31.971Z,4248.00
2022-07-26T07:04:32.026Z,4256.00
2022-07-26T07:05:31.962Z,4204.00
2022-07-26T07:06:31.950Z,4140.00
2022-07-26T07:07:31.963Z,4096.00
2022-07-26T07:08:32.138Z,3984.00
2022-07-26T07:09:31.904Z,3796.00
2022-07-26T07:10:31.891Z,3600.00
2022-07-26T07:11:31.873Z,3440.00
2022-07-26T07:12:31.863Z,3352.00
2022-07-26T07:13:31.854Z,3356.00
2022-07-26T07:14:31.844Z,3452.00
2022-07-26T07:15:31.825Z,3720.00
2022-07-26T07:16:31.852Z,4112.00
2022-07-26T07:17:31.827Z,4508.00
2022-07-26T07:18:31.785Z,4756.00
2022-07-26T07:19:31.786Z,4860.00
2022-07-26T07:20:31.776Z,4984.00
2022-07-26T07:21:31.764Z,5124.00
2022-07-26T07:22:31.782Z,5264.00
2022-07-26T07:23:31.739Z,5368.00
2022-07-26T07:24:31.723Z,5400.00
2022-07-26T07:25:31.731Z,5344.00
2022-07-26T07:26:31.719Z,5332.00
2022-07-26T07:27:31.698Z,5396.00
2022-07-26T07:28:31.678Z,5496.00
2022-07-26T07:29:31.688Z,5500.00
2022-07-26T07:30:31.655Z,5364.00
2022-07-26T07:31:48.581Z,5208.00
2022-07-26T07:32:32.673Z,5172.00
2022-07-26T07:33:36.460Z,5144.00
2022-07-26T07:34:32.612Z,5100.00
2022-07-26T07:35:32.855Z,5148.00
2022-07-26T07:36:31.615Z,5364.00
2022-07-26T07:37:52.388Z,5536.00
2022-07-26T07:38:32.577Z,5552.00
2022-07-26T07:39:38.535Z,5548.00
2022-07-26T07:40:32.540Z,5488.00
2022-07-26T07:41:31.547Z,5388.00
2022-07-26T07:42:31.547Z,5256.00
2022-07-26T07:43:31.508Z,5092.00
2022-07-26T07:44:31.509Z,4936.00
2022-07-26T07:45:31.499Z,4860.00
2022-07-26T07:46:31.510Z,4812.00
2022-07-26T07:47:31.481Z,4908.00
2022-07-26T07:48:31.500Z,5064.00
2022-07-26T07:49:31.485Z,5300.00
2022-07-26T07:50:31.445Z,5588.00
2022-07-26T07:51:31.423Z,5860.00
2022-07-26T07:52:31.410Z,5844.00
2022-07-26T07:53:31.396Z,5836.00
2022-07-26T07:54:31.392Z,5972.00
2022-07-26T07:55:40.486Z,6304.00
2022-07-26T07:56:32.456Z,6400.00
2022-07-26T07:57:31.346Z,6488.00
2022-07-26T07:58:31.334Z,6864.00
2022-07-26T07:59:31.335Z,7348.00
2022-07-26T08:00:31.321Z,7680.00
2022-07-26T08:01:39.811Z,7976.00
2022-07-26T08:02:32.360Z,8356.00
2022-07-26T08:03:38.170Z,8668.00
2022-07-26T08:04:32.310Z,8696.00
2022-07-26T08:05:31.263Z,8716.00
2022-07-26T08:06:31.312Z,9252.00
2022-07-26T08:07:33.070Z,8868.00
2022-07-26T08:08:32.217Z,8788.00
2022-07-26T08:09:33.678Z,8676.00
2022-07-26T08:10:31.193Z,8664.00
2022-07-26T08:11:31.202Z,8604.00
2022-07-26T08:12:31.196Z,8540.00
2022-07-26T08:13:31.174Z,8312.00
2022-07-26T08:14:31.158Z,7920.00
2022-07-26T08:15:31.180Z,7844.00
2022-07-26T08:16:31.205Z,8092.00
2022-07-26T08:17:31.142Z,8544.00
2022-07-26T08:18:31.140Z,8704.00
2022-07-26T08:19:40.919Z,8644.00
2022-07-26T08:20:32.084Z,8240.00
2022-07-26T08:21:31.082Z,7860.00
2022-07-26T08:22:31.137Z,7440.00
2022-07-26T08:23:31.082Z,7172.00
2022-07-26T08:24:31.090Z,7396.00
2022-07-26T08:25:31.078Z,8072.00
2022-07-26T08:26:31.010Z,8760.00
2022-07-26T08:27:31.021Z,9176.00
2022-07-26T08:28:46.924Z,9292.00
2022-07-26T08:29:31.983Z,9716.00
2022-07-26T08:30:35.076Z,9596.00
2022-07-26T08:31:31.022Z,9736.00
2022-07-26T08:32:30.962Z,10408.00
2022-07-26T08:33:30.953Z,9796.00
2022-07-26T08:34:34.937Z,10440.00
2022-07-26T08:35:30.914Z,10264.00
2022-07-26T08:36:32.775Z,10144.00
2022-07-26T08:37:30.898Z,10488.00
2022-07-26T08:38:30.893Z,10668.00
2022-07-26T08:39:30.884Z,10324.00
2022-07-26T08:40:30.989Z,9564.00
2022-07-26T08:41:30.849Z,9208.00
2022-07-26T08:42:30.864Z,9336.00
2022-07-26T08:43:30.826Z,9316.00
2022-07-26T08:44:30.827Z,9144.00
2022-07-26T08:45:30.815Z,9232.00
2022-07-26T08:46:30.831Z,9380.00
2022-07-26T08:47:36.223Z,9640.00
2022-07-26T08:48:34.740Z,9828.00
2022-07-26T08:49:31.813Z,10000.00
2022-07-26T08:50:30.799Z,10136.00
2022-07-26T08:51:30.836Z,10200.00
2022-07-26T08:52:30.786Z,10288.00
2022-07-26T08:53:30.738Z,10300.00
2022-07-26T08:54:30.715Z,10256.00
2022-07-26T08:55:50.275Z,10256.00
2022-07-26T08:56:31.718Z,10384.00
2022-07-26T08:57:30.702Z,10376.00
2022-07-26T08:58:30.688Z,10096.00
2022-07-26T08:59:30.717Z,9812.00
2022-07-26T09:00:30.761Z,9424.00
2022-07-26T09:01:30.711Z,9204.00
2022-07-26T09:02:30.639Z,9204.00
2022-07-26T09:03:30.662Z,8872.00
2022-07-26T09:04:32.705Z,8192.00
2022-07-26T09:05:30.635Z,7452.00
2022-07-26T09:06:30.572Z,7208.00
2022-07-26T09:07:30.692Z,7200.00
2022-07-26T09:08:30.577Z,6680.00
2022-07-26T09:09:30.542Z,7212.00
2022-07-26T09:10:30.554Z,7568.00
2022-07-26T09:11:30.531Z,7556.00
2022-07-26T09:12:30.531Z,6984.00
2022-07-26T09:13:30.506Z,6748.00
2022-07-26T09:14:30.515Z,6944.00
2022-07-26T09:15:30.494Z,7128.00
2022-07-26T09:16:30.523Z,7692.00
2022-07-26T09:17:30.482Z,8300.00
2022-07-26T09:18:30.435Z,8512.00
2022-07-26T09:19:30.443Z,8352.00
2022-07-26T09:20:30.422Z,7872.00
2022-07-26T09:21:30.412Z,7916.00
2022-07-26T09:22:30.406Z,7668.00
2022-07-26T09:23:30.397Z,8456.00
2022-07-26T09:24:30.368Z,9860.00
2022-07-26T09:25:30.360Z,9604.00
2022-07-26T09:26:30.367Z,8496.00
2022-07-26T09:27:30.355Z,8264.00
2022-07-26T09:28:30.317Z,7556.00
2022-07-26T09:29:30.327Z,8808.00
2022-07-26T09:30:30.316Z,8012.00
2022-07-26T09:31:30.374Z,8252.00
2022-07-26T09:32:30.309Z,8304.00
2022-07-26T09:33:30.269Z,7008.00
2022-07-26T09:34:30.260Z,7580.00
2022-07-26T09:35:49.898Z,8348.00
2022-07-26T09:36:31.240Z,9024.00
2022-07-26T09:37:30.250Z,9580.00
2022-07-26T09:38:30.231Z,9908.00
2022-07-26T09:39:33.885Z,10008.00
2022-07-26T09:40:30.251Z,10760.00
2022-07-26T09:41:30.268Z,10340.00
2022-07-26T09:42:30.243Z,9956.00
2022-07-26T09:43:30.151Z,9204.00
2022-07-26T09:44:30.720Z,8948.00
2022-07-26T09:45:30.133Z,7776.00
2022-07-26T09:46:30.174Z,7184.00
2022-07-26T09:47:30.154Z,7620.00
2022-07-26T09:48:36.503Z,7740.00
2022-07-26T09:49:39.987Z,7512.00
2022-07-26T09:50:31.169Z,7476.00
2022-07-26T09:51:30.064Z,7872.00
2022-07-26T09:52:30.067Z,8616.00
2022-07-26T09:53:30.065Z,9248.00
2022-07-26T09:54:30.027Z,9984.00
2022-07-26T09:55:39.321Z,9832.00
2022-07-26T09:56:31.014Z,9228.00
2022-07-26T09:57:30.013Z,7984.00
2022-07-26T09:58:29.992Z,6772.00
2022-07-26T09:59:30.032Z,7792.00
2022-07-26T10:00:29.963Z,7452.00
2022-07-26T10:01:30.011Z,7444.00
2022-07-26T10:02:30.007Z,7856.00
2022-07-26T10:03:29.930Z,8016.00
2022-07-26T10:04:29.964Z,6644.00
2022-07-26T10:05:29.910Z,8772.00
2022-07-26T10:06:30.591Z,9656.00
2022-07-26T10:07:29.902Z,9788.00
2022-07-26T10:08:31.143Z,9528.00
2022-07-26T10:09:31.036Z,7632.00
2022-07-26T10:10:32.540Z,7400.00
2022-07-26T10:11:29.837Z,6976.00
2022-07-26T10:12:30.704Z,6408.00
2022-07-26T10:13:29.820Z,6172.00
2022-07-26T10:14:29.825Z,6120.00
2022-07-26T10:15:29.794Z,6000.00
2022-07-26T10:16:29.836Z,5860.00
2022-07-26T10:17:31.758Z,5492.00
2022-07-26T10:18:30.774Z,5020.00
2022-07-26T10:19:29.752Z,4676.00
2022-07-26T10:20:29.769Z,4704.00
2022-07-26T10:21:29.778Z,5044.00
2022-07-26T10:22:29.754Z,5764.00
2022-07-26T10:23:29.718Z,6492.00
2022-07-26T10:24:29.693Z,7172.00
2022-07-26T10:25:29.687Z,7592.00
2022-07-26T10:26:29.683Z,7680.00
2022-07-26T10:27:29.676Z,7588.00
2022-07-26T10:28:29.665Z,7292.00
2022-07-26T10:29:29.693Z,7400.00
2022-07-26T10:30:35.172Z,8004.00
2022-07-26T10:31:30.833Z,8472.00
2022-07-26T10:32:29.616Z,8144.00
2022-07-26T10:33:29.586Z,7452.00
2022-07-26T10:34:29.625Z,6796.00
2022-07-26T10:35:29.577Z,6208.00
2022-07-26T10:36:29.557Z,5808.00
2022-07-26T10:37:29.586Z,5656.00
2022-07-26T10:38:29.531Z,5560.00
2022-07-26T10:39:29.527Z,5512.00
2022-07-26T10:40:29.537Z,5580.00
2022-07-26T10:41:29.506Z,5492.00
2022-07-26T10:42:29.498Z,5688.00
2022-07-26T10:43:44.767Z,6080.00
2022-07-26T10:44:30.459Z,6540.00
2022-07-26T10:45:29.464Z,7124.00
2022-07-26T10:46:29.534Z,7884.00
2022-07-26T10:47:34.911Z,8820.00
2022-07-26T10:48:30.488Z,9772.00
2022-07-26T10:49:29.420Z,10440.00
2022-07-26T10:50:29.401Z,10684.00
2022-07-26T10:51:29.415Z,10640.00
2022-07-26T10:52:29.504Z,10708.00
2022-07-26T10:53:29.371Z,10828.00
2022-07-26T10:54:29.361Z,10992.00
2022-07-26T10:55:29.356Z,10952.00
2022-07-26T10:56:33.109Z,10820.00
2022-07-26T10:57:29.362Z,10696.00
2022-07-26T10:58:29.320Z,10588.00
2022-07-26T10:59:54.421Z,10456.00
2022-07-26T11:00:30.331Z,10460.00
2022-07-26T11:01:29.307Z,10488.00
2022-07-26T11:02:29.312Z,10552.00
2022-07-26T11:03:29.274Z,10536.00
2022-07-26T11:04:29.256Z,10480.00
2022-07-26T11:05:29.236Z,10136.00
2022-07-26T11:06:29.275Z,9628.00
2022-07-26T11:07:29.224Z,9112.00
2022-07-26T11:08:29.206Z,8640.00
2022-07-26T11:09:29.206Z,8124.00
2022-07-26T11:10:29.180Z,7700.00
2022-07-26T11:11:29.168Z,7488.00
2022-07-26T11:12:29.196Z,7496.00
2022-07-26T11:13:29.137Z,7612.00
2022-07-26T11:14:29.136Z,7752.00
2022-07-26T11:15:29.215Z,7944.00
2022-07-26T11:16:29.169Z,8144.00
2022-07-26T11:17:29.098Z,8412.00
2022-07-26T11:18:29.129Z,8720.00
2022-07-26T11:19:29.081Z,9084.00
2022-07-26T11:20:30.014Z,9512.00
2022-07-26T11:21:29.058Z,9988.00
2022-07-26T11:22:29.052Z,10472.00
2022-07-26T11:23:29.029Z,10884.00
2022-07-26T11:24:29.334Z,11284.00
2022-07-26T11:25:29.002Z,11568.00
2022-07-26T11:26:28.993Z,11868.00
2022-07-26T11:27:29.002Z,12144.00
2022-07-26T11:28:28.972Z,12340.00
2022-07-26T11:29:37.958Z,12432.00
2022-07-26T11:30:29.955Z,12528.00
2022-07-26T11:31:51.357Z,12544.00
2022-07-26T11:32:29.996Z,12616.00
2022-07-26T11:33:28.924Z,12616.00
2022-07-26T11:34:28.903Z,12572.00
2022-07-26T11:35:30.101Z,12456.00
2022-07-26T11:36:28.875Z,12248.00
2022-07-26T11:37:28.896Z,12160.00
2022-07-26T11:38:28.865Z,12180.00
2022-07-26T11:39:28.854Z,12172.00
2022-07-26T11:40:28.836Z,12104.00
2022-07-26T11:41:34.751Z,11960.00
2022-07-26T11:42:29.826Z,11828.00
2022-07-26T11:43:28.867Z,11652.00
2022-07-26T11:44:28.799Z,11436.00
2022-07-26T11:45:28.786Z,11320.00
2022-07-26T11:46:28.786Z,11252.00
2022-07-26T11:47:28.770Z,12064.00
2022-07-26T11:48:28.772Z,11816.00
2022-07-26T11:50:01.261Z,11280.00
2022-07-26T11:50:29.728Z,9176.00
2022-07-26T11:51:29.001Z,8780.00
2022-07-26T11:52:28.851Z,8472.00
2022-07-26T11:53:28.713Z,7968.00
2022-07-26T11:54:28.680Z,7372.00
2022-07-26T11:55:28.681Z,7660.00
2022-07-26T11:56:28.671Z,6648.00
2022-07-26T11:57:28.676Z,6340.00
2022-07-26T11:58:28.633Z,6436.00
2022-07-26T11:59:28.670Z,6516.00
2022-07-26T12:00:28.613Z,7372.00
2022-07-26T12:01:28.614Z,6364.00
2022-07-26T12:02:28.629Z,6396.00
2022-07-26T12:03:28.591Z,6568.00
2022-07-26T12:04:28.676Z,7248.00
2022-07-26T12:05:28.742Z,7412.00
2022-07-26T12:06:28.566Z,7456.00
2022-07-26T12:07:28.553Z,7240.00
2022-07-26T12:08:28.568Z,6432.00
2022-07-26T12:09:28.513Z,6676.00
2022-07-26T12:10:28.510Z,7028.00
2022-07-26T12:11:28.506Z,7732.00
2022-07-26T12:12:28.573Z,8968.00
2022-07-26T12:13:28.479Z,9456.00
2022-07-26T12:14:30.167Z,8828.00
2022-07-26T12:15:28.510Z,9380.00
2022-07-26T12:16:28.521Z,8256.00
2022-07-26T12:17:35.120Z,8380.00
2022-07-26T12:18:29.433Z,8172.00
2022-07-26T12:19:28.406Z,7900.00
2022-07-26T12:20:28.417Z,8048.00
2022-07-26T12:21:28.400Z,7860.00
2022-07-26T12:22:28.390Z,7100.00
2022-07-26T12:23:28.388Z,6016.00
2022-07-26T12:24:28.379Z,5160.00
2022-07-26T12:25:28.345Z,4252.00